Aérodrome :
LOGIN :

S'inscrire | Disclaimer

   EN    FR    IT 

 










Légende :    VFR   VFR Marginal   IFR   IFR Intensif   IFR Très Intensif
Visi : 
Plafond : 
>= 8 km
>= 3000ft
5 à 8 km
1000 à 3000 ft
1500m à 5 km
500 à 1000 ft
800 à 1500m
200 à 500 ft
< 800m
< 200 ft
Symboles :   Orages  Brouillard  Fortes neiges  Fortes précipitations  Vent > 20 kt
SIGMETs :   Divers  Orages  Givrage  Turbulence  Onde Orograph.  Cendres Volcan.






- Altitude de l'aérodrome : 505 ft
- Code IATA : SXB


LFST - Strasbourg

DERNIER METAR :
  • 151500Z AUTO VRB03KT CAVOK 29/17 Q1009 TEMPO 26020G35KT 2000 TSRA SCT060CB

METARs EXPIRÉS :
  • 151430Z AUTO 14004KT 090V200 CAVOK 30/18 Q1009 TEMPO 26020G35KT 2000 TSRA SCT060CB
  • 151400Z AUTO 16004KT 070V220 9999 FEW012 BKN190 30/19 Q1009 TEMPO FEW060CB
  • 151330Z AUTO 15004KT 100V190 CAVOK 29/18 Q1010 TEMPO FEW060CB
  • 151300Z AUTO 16004KT 100V230 CAVOK 30/17 Q1010 TEMPO FEW060CB
  • 151230Z AUTO 15004KT 090V210 CAVOK 29/16 Q1010 TEMPO FEW060CB
  • 151200Z AUTO 13005KT 090V180 CAVOK 29/15 Q1011 TEMPO FEW060CB
  • 151130Z AUTO 12003KT 030V190 CAVOK 28/16 Q1011 TEMPO 4000 SHRA FEW090CB
  • 151100Z AUTO VRB03KT CAVOK 28/15 Q1011 NOSIG
  • 151030Z AUTO VRB03KT CAVOK 27/16 Q1012 NOSIG

TAF TAF LFST
Valide du 15 à 12h jusqu'au 16 à 12h UTC


151100Z 1512/1612 15006KT CAVOK
TEMPO 1513/1516 FEW060CB
TEMPO 1516/1520 26020G35KT 2000 TSRA SCT060CB
PROB40 1517/1519 VRB20G45KT 0800 TSGR BKN050CB
BECMG 1520/1523 21010KT



MET'MAP, la Météo Aéronautique d'un coup d'oeil ! - Copyright ORBIFLY Décembre 2007 - Disclaimer

ORBIFLY MET'MAP TEAM :

Programmation & Développement : Alexandra Zaïnal
Sur une idée originale de : Baudouin d'Aumeries
Soutien technique & logistique : Manuel Goepfert
Assistance : Marc-Olivier Méhu




SOURCES & CREDITS :

   NOAA